sensor_id;sensor_type;location;lat;lon;timestamp;P1;durP1;ratioP1;P2;durP2;ratioP2
22468;SDS011;11401;50.792;4.352;2023-11-19T00:00:07;1.50;;;1.40;;
22468;SDS011;11401;50.792;4.352;2023-11-19T00:02:40;1.50;;;1.40;;
22468;SDS011;11401;50.792;4.352;2023-11-19T00:05:09;1.63;;;1.50;;
22468;SDS011;11401;50.792;4.352;2023-11-19T00:07:39;1.63;;;1.50;;
22468;SDS011;11401;50.792;4.352;2023-11-19T00:10:16;1.83;;;1.73;;
22468;SDS011;11401;50.792;4.352;2023-11-19T00:12:47;2.20;;;1.48;;
22468;SDS011;11401;50.792;4.352;2023-11-19T00:15:16;2.72;;;1.55;;
22468;SDS011;11401;50.792;4.352;2023-11-19T00:17:45;2.17;;;1.80;;
22468;SDS011;11401;50.792;4.352;2023-11-19T00:20:16;1.83;;;1.30;;
22468;SDS011;11401;50.792;4.352;2023-11-19T00:22:45;4.20;;;1.85;;
22468;SDS011;11401;50.792;4.352;2023-11-19T00:25:18;2.05;;;1.60;;
22468;SDS011;11401;50.792;4.352;2023-11-19T00:27:47;2.78;;;1.45;;
22468;SDS011;11401;50.792;4.352;2023-11-19T00:30:14;2.05;;;1.58;;
22468;SDS011;11401;50.792;4.352;2023-11-19T00:32:41;2.72;;;1.60;;
22468;SDS011;11401;50.792;4.352;2023-11-19T00:35:09;1.50;;;1.40;;
22468;SDS011;11401;50.792;4.352;2023-11-19T00:37:42;2.65;;;1.70;;
22468;SDS011;11401;50.792;4.352;2023-11-19T00:40:09;3.38;;;1.75;;
22468;SDS011;11401;50.792;4.352;2023-11-19T00:42:38;2.17;;;1.60;;
22468;SDS011;11401;50.792;4.352;2023-11-19T00:45:05;2.30;;;2.10;;
22468;SDS011;11401;50.792;4.352;2023-11-19T00:47:37;2.15;;;1.52;;
22468;SDS011;11401;50.792;4.352;2023-11-19T00:50:05;1.92;;;1.80;;
22468;SDS011;11401;50.792;4.352;2023-11-19T00:52:36;1.92;;;1.45;;
22468;SDS011;11401;50.792;4.352;2023-11-19T00:55:04;3.88;;;1.85;;
22468;SDS011;11401;50.792;4.352;2023-11-19T00:57:31;2.72;;;1.50;;
22468;SDS011;11401;50.792;4.352;2023-11-19T00:59:59;9.38;;;1.65;;
22468;SDS011;11401;50.792;4.352;2023-11-19T01:02:26;3.05;;;1.40;;
22468;SDS011;11401;50.792;4.352;2023-11-19T01:04:55;3.65;;;1.90;;
22468;SDS011;11401;50.792;4.352;2023-11-19T01:07:22;4.43;;;1.58;;
22468;SDS011;11401;50.792;4.352;2023-11-19T01:09:50;4.38;;;2.00;;
22468;SDS011;11401;50.792;4.352;2023-11-19T01:12:17;3.33;;;1.92;;
22468;SDS011;11401;50.792;4.352;2023-11-19T01:14:44;3.55;;;1.83;;
22468;SDS011;11401;50.792;4.352;2023-11-19T01:17:11;4.43;;;1.90;;
22468;SDS011;11401;50.792;4.352;2023-11-19T01:19:38;3.50;;;2.20;;
22468;SDS011;11401;50.792;4.352;2023-11-19T01:22:05;3.67;;;1.70;;
22468;SDS011;11401;50.792;4.352;2023-11-19T01:24:33;2.63;;;2.00;;
22468;SDS011;11401;50.792;4.352;2023-11-19T01:27:00;4.57;;;2.03;;
22468;SDS011;11401;50.792;4.352;2023-11-19T01:29:27;3.15;;;1.88;;
22468;SDS011;11401;50.792;4.352;2023-11-19T01:31:54;5.15;;;1.70;;
22468;SDS011;11401;50.792;4.352;2023-11-19T01:34:21;3.50;;;1.92;;
22468;SDS011;11401;50.792;4.352;2023-11-19T01:36:48;3.05;;;1.80;;
22468;SDS011;11401;50.792;4.352;2023-11-19T01:39:16;3.38;;;1.88;;
22468;SDS011;11401;50.792;4.352;2023-11-19T01:41:43;3.22;;;1.90;;
22468;SDS011;11401;50.792;4.352;2023-11-19T01:44:10;5.80;;;2.10;;
22468;SDS011;11401;50.792;4.352;2023-11-19T01:46:40;2.25;;;1.30;;
22468;SDS011;11401;50.792;4.352;2023-11-19T01:49:10;3.78;;;2.10;;
22468;SDS011;11401;50.792;4.352;2023-11-19T01:51:38;4.00;;;1.92;;
22468;SDS011;11401;50.792;4.352;2023-11-19T01:54:06;5.18;;;2.05;;
22468;SDS011;11401;50.792;4.352;2023-11-19T01:56:34;1.70;;;1.60;;
22468;SDS011;11401;50.792;4.352;2023-11-19T01:59:03;2.95;;;2.10;;
22468;SDS011;11401;50.792;4.352;2023-11-19T02:01:31;5.53;;;1.85;;
22468;SDS011;11401;50.792;4.352;2023-11-19T02:04:01;8.63;;;2.30;;
22468;SDS011;11401;50.792;4.352;2023-11-19T02:06:29;4.35;;;2.08;;
22468;SDS011;11401;50.792;4.352;2023-11-19T02:08:58;3.72;;;2.08;;
22468;SDS011;11401;50.792;4.352;2023-11-19T02:11:25;7.95;;;1.98;;
22468;SDS011;11401;50.792;4.352;2023-11-19T02:13:55;6.15;;;2.65;;
22468;SDS011;11401;50.792;4.352;2023-11-19T02:16:23;4.15;;;1.80;;
22468;SDS011;11401;50.792;4.352;2023-11-19T02:18:50;5.25;;;2.40;;
22468;SDS011;11401;50.792;4.352;2023-11-19T02:21:17;4.57;;;1.90;;
22468;SDS011;11401;50.792;4.352;2023-11-19T02:23:44;4.95;;;2.10;;
22468;SDS011;11401;50.792;4.352;2023-11-19T02:26:20;7.40;;;2.28;;
22468;SDS011;11401;50.792;4.352;2023-11-19T02:29:20;3.42;;;1.75;;
22468;SDS011;11401;50.792;4.352;2023-11-19T02:31:47;4.93;;;2.33;;
22468;SDS011;11401;50.792;4.352;2023-11-19T02:34:14;3.22;;;2.03;;
22468;SDS011;11401;50.792;4.352;2023-11-19T02:36:42;3.72;;;1.90;;
22468;SDS011;11401;50.792;4.352;2023-11-19T02:39:09;4.30;;;2.20;;
22468;SDS011;11401;50.792;4.352;2023-11-19T02:41:38;4.65;;;2.20;;
22468;SDS011;11401;50.792;4.352;2023-11-19T02:44:06;4.00;;;2.08;;
22468;SDS011;11401;50.792;4.352;2023-11-19T02:46:33;5.70;;;2.47;;
22468;SDS011;11401;50.792;4.352;2023-11-19T02:49:00;8.65;;;2.58;;
22468;SDS011;11401;50.792;4.352;2023-11-19T02:51:27;3.03;;;2.03;;
22468;SDS011;11401;50.792;4.352;2023-11-19T02:53:56;10.48;;;2.83;;
22468;SDS011;11401;50.792;4.352;2023-11-19T02:56:24;7.25;;;2.30;;
22468;SDS011;11401;50.792;4.352;2023-11-19T02:58:53;6.38;;;2.42;;
22468;SDS011;11401;50.792;4.352;2023-11-19T03:01:24;6.00;;;2.30;;
22468;SDS011;11401;50.792;4.352;2023-11-19T03:03:58;6.75;;;2.10;;
22468;SDS011;11401;50.792;4.352;2023-11-19T03:06:29;7.55;;;2.67;;
22468;SDS011;11401;50.792;4.352;2023-11-19T03:08:56;7.43;;;2.50;;
22468;SDS011;11401;50.792;4.352;2023-11-19T03:11:23;6.38;;;2.45;;
22468;SDS011;11401;50.792;4.352;2023-11-19T03:13:51;5.15;;;2.08;;
22468;SDS011;11401;50.792;4.352;2023-11-19T03:16:18;10.95;;;2.60;;
22468;SDS011;11401;50.792;4.352;2023-11-19T03:18:45;2.65;;;2.00;;
22468;SDS011;11401;50.792;4.352;2023-11-19T03:21:13;5.10;;;1.92;;
22468;SDS011;11401;50.792;4.352;2023-11-19T03:23:40;7.78;;;2.40;;
22468;SDS011;11401;50.792;4.352;2023-11-19T03:26:08;7.55;;;2.50;;
22468;SDS011;11401;50.792;4.352;2023-11-19T03:28:38;6.53;;;2.88;;
22468;SDS011;11401;50.792;4.352;2023-11-19T03:31:05;7.05;;;2.42;;
22468;SDS011;11401;50.792;4.352;2023-11-19T03:33:35;5.63;;;2.40;;
22468;SDS011;11401;50.792;4.352;2023-11-19T03:36:02;5.93;;;2.80;;
22468;SDS011;11401;50.792;4.352;2023-11-19T03:38:29;7.97;;;2.20;;
22468;SDS011;11401;50.792;4.352;2023-11-19T03:40:57;5.15;;;2.63;;
22468;SDS011;11401;50.792;4.352;2023-11-19T03:43:24;6.63;;;1.98;;
22468;SDS011;11401;50.792;4.352;2023-11-19T03:45:51;4.95;;;2.10;;
22468;SDS011;11401;50.792;4.352;2023-11-19T03:48:18;5.70;;;2.45;;
22468;SDS011;11401;50.792;4.352;2023-11-19T03:50:45;6.53;;;2.28;;
22468;SDS011;11401;50.792;4.352;2023-11-19T03:53:12;5.60;;;2.50;;
22468;SDS011;11401;50.792;4.352;2023-11-19T03:55:40;8.38;;;2.35;;
22468;SDS011;11401;50.792;4.352;2023-11-19T03:58:07;10.23;;;2.60;;
22468;SDS011;11401;50.792;4.352;2023-11-19T04:00:34;6.32;;;2.58;;
22468;SDS011;11401;50.792;4.352;2023-11-19T04:03:01;6.50;;;2.50;;
22468;SDS011;11401;50.792;4.352;2023-11-19T04:05:29;4.55;;;2.50;;
22468;SDS011;11401;50.792;4.352;2023-11-19T04:07:56;5.63;;;2.22;;
22468;SDS011;11401;50.792;4.352;2023-11-19T04:10:23;6.25;;;2.22;;
22468;SDS011;11401;50.792;4.352;2023-11-19T04:12:50;8.18;;;2.50;;
22468;SDS011;11401;50.792;4.352;2023-11-19T04:15:17;4.95;;;2.55;;
22468;SDS011;11401;50.792;4.352;2023-11-19T04:17:44;8.23;;;2.50;;
22468;SDS011;11401;50.792;4.352;2023-11-19T04:20:11;6.15;;;2.60;;
22468;SDS011;11401;50.792;4.352;2023-11-19T04:22:41;11.88;;;3.30;;
22468;SDS011;11401;50.792;4.352;2023-11-19T04:25:08;11.50;;;2.67;;
22468;SDS011;11401;50.792;4.352;2023-11-19T04:27:36;8.30;;;2.72;;
22468;SDS011;11401;50.792;4.352;2023-11-19T04:30:03;7.30;;;2.70;;
22468;SDS011;11401;50.792;4.352;2023-11-19T04:32:31;5.55;;;2.20;;
22468;SDS011;11401;50.792;4.352;2023-11-19T04:34:58;6.10;;;2.17;;
22468;SDS011;11401;50.792;4.352;2023-11-19T04:37:25;6.88;;;2.60;;
22468;SDS011;11401;50.792;4.352;2023-11-19T04:39:52;9.07;;;3.00;;
22468;SDS011;11401;50.792;4.352;2023-11-19T04:42:22;6.38;;;2.22;;
22468;SDS011;11401;50.792;4.352;2023-11-19T04:44:49;8.82;;;2.35;;
22468;SDS011;11401;50.792;4.352;2023-11-19T04:47:16;7.55;;;3.20;;
22468;SDS011;11401;50.792;4.352;2023-11-19T04:49:43;9.30;;;3.13;;
22468;SDS011;11401;50.792;4.352;2023-11-19T04:52:10;12.60;;;2.90;;
22468;SDS011;11401;50.792;4.352;2023-11-19T04:54:43;5.55;;;2.50;;
22468;SDS011;11401;50.792;4.352;2023-11-19T04:57:10;6.43;;;2.47;;
22468;SDS011;11401;50.792;4.352;2023-11-19T04:59:38;8.60;;;2.70;;
22468;SDS011;11401;50.792;4.352;2023-11-19T05:02:05;7.80;;;2.45;;
22468;SDS011;11401;50.792;4.352;2023-11-19T05:04:32;6.10;;;2.95;;
22468;SDS011;11401;50.792;4.352;2023-11-19T05:06:59;9.00;;;2.88;;
22468;SDS011;11401;50.792;4.352;2023-11-19T05:09:26;10.90;;;3.45;;
22468;SDS011;11401;50.792;4.352;2023-11-19T05:11:53;12.15;;;2.90;;
22468;SDS011;11401;50.792;4.352;2023-11-19T05:14:20;9.05;;;3.35;;
22468;SDS011;11401;50.792;4.352;2023-11-19T05:16:48;10.45;;;2.92;;
22468;SDS011;11401;50.792;4.352;2023-11-19T05:19:16;7.80;;;2.90;;
22468;SDS011;11401;50.792;4.352;2023-11-19T05:21:43;14.13;;;3.30;;
22468;SDS011;11401;50.792;4.352;2023-11-19T05:24:11;7.30;;;2.60;;
22468;SDS011;11401;50.792;4.352;2023-11-19T05:26:41;12.80;;;3.28;;
22468;SDS011;11401;50.792;4.352;2023-11-19T05:29:08;8.80;;;2.95;;
22468;SDS011;11401;50.792;4.352;2023-11-19T05:31:35;8.43;;;2.78;;
22468;SDS011;11401;50.792;4.352;2023-11-19T05:34:04;10.73;;;3.00;;
22468;SDS011;11401;50.792;4.352;2023-11-19T05:36:31;9.68;;;3.33;;
22468;SDS011;11401;50.792;4.352;2023-11-19T05:38:59;10.30;;;3.03;;
22468;SDS011;11401;50.792;4.352;2023-11-19T05:41:25;9.10;;;2.97;;
22468;SDS011;11401;50.792;4.352;2023-11-19T05:43:53;9.00;;;2.92;;
22468;SDS011;11401;50.792;4.352;2023-11-19T05:46:19;9.73;;;2.83;;
22468;SDS011;11401;50.792;4.352;2023-11-19T05:48:47;8.77;;;3.03;;
22468;SDS011;11401;50.792;4.352;2023-11-19T05:51:14;12.32;;;3.63;;
22468;SDS011;11401;50.792;4.352;2023-11-19T05:53:42;12.95;;;3.00;;
22468;SDS011;11401;50.792;4.352;2023-11-19T05:56:12;13.18;;;3.63;;
22468;SDS011;11401;50.792;4.352;2023-11-19T05:58:40;9.93;;;3.47;;
22468;SDS011;11401;50.792;4.352;2023-11-19T06:01:07;10.98;;;3.17;;
22468;SDS011;11401;50.792;4.352;2023-11-19T06:03:35;10.98;;;3.30;;
22468;SDS011;11401;50.792;4.352;2023-11-19T06:06:03;11.07;;;3.75;;
22468;SDS011;11401;50.792;4.352;2023-11-19T06:08:31;11.43;;;3.60;;
22468;SDS011;11401;50.792;4.352;2023-11-19T06:10:58;12.18;;;3.85;;
22468;SDS011;11401;50.792;4.352;2023-11-19T06:13:27;12.18;;;3.97;;
22468;SDS011;11401;50.792;4.352;2023-11-19T06:15:57;12.65;;;3.63;;
22468;SDS011;11401;50.792;4.352;2023-11-19T06:18:25;12.40;;;3.30;;
22468;SDS011;11401;50.792;4.352;2023-11-19T06:20:52;12.77;;;3.40;;
22468;SDS011;11401;50.792;4.352;2023-11-19T06:23:19;13.68;;;3.85;;
22468;SDS011;11401;50.792;4.352;2023-11-19T06:25:46;10.68;;;3.28;;
22468;SDS011;11401;50.792;4.352;2023-11-19T06:28:13;8.70;;;3.60;;
22468;SDS011;11401;50.792;4.352;2023-11-19T06:30:41;17.88;;;3.42;;
22468;SDS011;11401;50.792;4.352;2023-11-19T06:33:12;15.82;;;3.42;;
22468;SDS011;11401;50.792;4.352;2023-11-19T06:35:39;21.38;;;3.42;;
22468;SDS011;11401;50.792;4.352;2023-11-19T06:38:06;9.93;;;3.42;;
22468;SDS011;11401;50.792;4.352;2023-11-19T06:40:34;10.82;;;3.10;;
22468;SDS011;11401;50.792;4.352;2023-11-19T06:43:04;8.70;;;2.97;;
22468;SDS011;11401;50.792;4.352;2023-11-19T06:45:35;9.27;;;3.15;;
22468;SDS011;11401;50.792;4.352;2023-11-19T06:48:03;9.63;;;3.08;;
22468;SDS011;11401;50.792;4.352;2023-11-19T06:50:31;13.63;;;3.78;;
22468;SDS011;11401;50.792;4.352;2023-11-19T06:52:58;9.18;;;3.65;;
22468;SDS011;11401;50.792;4.352;2023-11-19T06:55:26;15.13;;;2.97;;
22468;SDS011;11401;50.792;4.352;2023-11-19T06:57:53;18.42;;;3.17;;
22468;SDS011;11401;50.792;4.352;2023-11-19T07:00:20;9.40;;;3.33;;
22468;SDS011;11401;50.792;4.352;2023-11-19T07:02:47;6.40;;;3.00;;
22468;SDS011;11401;50.792;4.352;2023-11-19T07:05:15;13.10;;;3.25;;
22468;SDS011;11401;50.792;4.352;2023-11-19T07:07:42;13.32;;;3.30;;
22468;SDS011;11401;50.792;4.352;2023-11-19T07:10:09;15.13;;;4.30;;
22468;SDS011;11401;50.792;4.352;2023-11-19T07:12:36;10.57;;;3.10;;
22468;SDS011;11401;50.792;4.352;2023-11-19T07:15:04;9.95;;;3.33;;
22468;SDS011;11401;50.792;4.352;2023-11-19T07:17:31;19.58;;;3.83;;
22468;SDS011;11401;50.792;4.352;2023-11-19T07:19:59;10.68;;;3.50;;
22468;SDS011;11401;50.792;4.352;2023-11-19T07:22:27;12.15;;;3.53;;
22468;SDS011;11401;50.792;4.352;2023-11-19T07:24:56;13.75;;;3.47;;
22468;SDS011;11401;50.792;4.352;2023-11-19T07:27:23;11.38;;;3.67;;
22468;SDS011;11401;50.792;4.352;2023-11-19T07:29:50;15.23;;;3.83;;
22468;SDS011;11401;50.792;4.352;2023-11-19T07:32:18;17.50;;;4.15;;
22468;SDS011;11401;50.792;4.352;2023-11-19T07:34:45;11.38;;;3.75;;
22468;SDS011;11401;50.792;4.352;2023-11-19T07:37:12;15.93;;;3.45;;
22468;SDS011;11401;50.792;4.352;2023-11-19T07:39:39;16.77;;;3.90;;
22468;SDS011;11401;50.792;4.352;2023-11-19T07:42:08;13.93;;;3.65;;
22468;SDS011;11401;50.792;4.352;2023-11-19T07:44:36;17.30;;;3.78;;
22468;SDS011;11401;50.792;4.352;2023-11-19T07:47:03;11.55;;;3.50;;
22468;SDS011;11401;50.792;4.352;2023-11-19T07:49:30;16.42;;;3.65;;
22468;SDS011;11401;50.792;4.352;2023-11-19T07:51:58;15.48;;;4.28;;
22468;SDS011;11401;50.792;4.352;2023-11-19T07:54:25;10.60;;;3.53;;
22468;SDS011;11401;50.792;4.352;2023-11-19T07:56:52;10.55;;;2.90;;
22468;SDS011;11401;50.792;4.352;2023-11-19T07:59:19;14.02;;;4.43;;
22468;SDS011;11401;50.792;4.352;2023-11-19T08:01:47;13.43;;;3.85;;
22468;SDS011;11401;50.792;4.352;2023-11-19T08:04:14;15.30;;;4.03;;
22468;SDS011;11401;50.792;4.352;2023-11-19T08:06:42;15.60;;;4.05;;
22468;SDS011;11401;50.792;4.352;2023-11-19T08:09:09;16.13;;;4.00;;
22468;SDS011;11401;50.792;4.352;2023-11-19T08:11:41;13.40;;;4.43;;
22468;SDS011;11401;50.792;4.352;2023-11-19T08:14:08;8.98;;;2.97;;
22468;SDS011;11401;50.792;4.352;2023-11-19T08:16:36;13.55;;;3.60;;
22468;SDS011;11401;50.792;4.352;2023-11-19T08:19:04;11.25;;;3.65;;
22468;SDS011;11401;50.792;4.352;2023-11-19T08:21:31;10.63;;;3.72;;
22468;SDS011;11401;50.792;4.352;2023-11-19T08:23:58;11.30;;;3.55;;
22468;SDS011;11401;50.792;4.352;2023-11-19T08:26:25;15.48;;;3.92;;
22468;SDS011;11401;50.792;4.352;2023-11-19T08:28:55;12.18;;;3.13;;
22468;SDS011;11401;50.792;4.352;2023-11-19T08:31:24;14.30;;;3.92;;
22468;SDS011;11401;50.792;4.352;2023-11-19T08:33:52;13.35;;;3.53;;
22468;SDS011;11401;50.792;4.352;2023-11-19T08:36:19;9.38;;;3.25;;
22468;SDS011;11401;50.792;4.352;2023-11-19T08:38:46;14.82;;;3.15;;
22468;SDS011;11401;50.792;4.352;2023-11-19T08:41:15;12.32;;;3.78;;
22468;SDS011;11401;50.792;4.352;2023-11-19T08:43:45;22.38;;;4.25;;
22468;SDS011;11401;50.792;4.352;2023-11-19T08:46:12;12.05;;;4.07;;
22468;SDS011;11401;50.792;4.352;2023-11-19T08:48:40;13.02;;;4.18;;
22468;SDS011;11401;50.792;4.352;2023-11-19T08:51:08;9.57;;;3.33;;
22468;SDS011;11401;50.792;4.352;2023-11-19T08:53:35;15.85;;;3.53;;
22468;SDS011;11401;50.792;4.352;2023-11-19T08:56:02;12.05;;;3.60;;
22468;SDS011;11401;50.792;4.352;2023-11-19T08:58:30;13.80;;;3.72;;
22468;SDS011;11401;50.792;4.352;2023-11-19T09:00:58;23.02;;;4.07;;
22468;SDS011;11401;50.792;4.352;2023-11-19T09:03:25;6.55;;;3.25;;
22468;SDS011;11401;50.792;4.352;2023-11-19T09:05:57;18.38;;;4.07;;
22468;SDS011;11401;50.792;4.352;2023-11-19T09:08:24;12.75;;;3.60;;
22468;SDS011;11401;50.792;4.352;2023-11-19T09:10:51;9.77;;;2.90;;
22468;SDS011;11401;50.792;4.352;2023-11-19T09:13:18;12.23;;;2.80;;
22468;SDS011;11401;50.792;4.352;2023-11-19T09:15:45;12.05;;;4.13;;
22468;SDS011;11401;50.792;4.352;2023-11-19T09:18:12;10.40;;;3.03;;
22468;SDS011;11401;50.792;4.352;2023-11-19T09:20:39;8.20;;;3.08;;
22468;SDS011;11401;50.792;4.352;2023-11-19T09:23:07;12.07;;;3.13;;
22468;SDS011;11401;50.792;4.352;2023-11-19T09:25:35;8.30;;;3.08;;
22468;SDS011;11401;50.792;4.352;2023-11-19T09:28:05;9.02;;;3.03;;
22468;SDS011;11401;50.792;4.352;2023-11-19T09:30:34;12.35;;;3.58;;
22468;SDS011;11401;50.792;4.352;2023-11-19T09:33:01;11.70;;;2.92;;
22468;SDS011;11401;50.792;4.352;2023-11-19T09:35:29;11.13;;;3.67;;
22468;SDS011;11401;50.792;4.352;2023-11-19T09:37:56;13.00;;;3.65;;
22468;SDS011;11401;50.792;4.352;2023-11-19T09:40:23;9.15;;;3.25;;
22468;SDS011;11401;50.792;4.352;2023-11-19T09:42:50;10.10;;;3.53;;
22468;SDS011;11401;50.792;4.352;2023-11-19T09:45:17;8.05;;;3.53;;
22468;SDS011;11401;50.792;4.352;2023-11-19T09:47:47;7.60;;;2.95;;
22468;SDS011;11401;50.792;4.352;2023-11-19T09:50:19;8.85;;;3.13;;
22468;SDS011;11401;50.792;4.352;2023-11-19T09:52:47;10.45;;;3.15;;
22468;SDS011;11401;50.792;4.352;2023-11-19T09:55:14;10.00;;;3.35;;
22468;SDS011;11401;50.792;4.352;2023-11-19T09:57:41;13.02;;;3.47;;
22468;SDS011;11401;50.792;4.352;2023-11-19T10:00:11;13.00;;;3.47;;
22468;SDS011;11401;50.792;4.352;2023-11-19T10:02:41;12.93;;;3.50;;
22468;SDS011;11401;50.792;4.352;2023-11-19T10:05:13;10.75;;;3.83;;
22468;SDS011;11401;50.792;4.352;2023-11-19T10:07:42;9.57;;;3.53;;
22468;SDS011;11401;50.792;4.352;2023-11-19T10:10:10;10.75;;;3.22;;
22468;SDS011;11401;50.792;4.352;2023-11-19T10:12:47;10.65;;;2.97;;
22468;SDS011;11401;50.792;4.352;2023-11-19T10:15:20;8.50;;;2.92;;
22468;SDS011;11401;50.792;4.352;2023-11-19T10:17:48;10.35;;;3.00;;
22468;SDS011;11401;50.792;4.352;2023-11-19T10:20:16;9.38;;;3.05;;
22468;SDS011;11401;50.792;4.352;2023-11-19T10:22:43;8.15;;;2.40;;
22468;SDS011;11401;50.792;4.352;2023-11-19T10:25:27;7.38;;;2.40;;
22468;SDS011;11401;50.792;4.352;2023-11-19T10:27:55;10.63;;;3.15;;
22468;SDS011;11401;50.792;4.352;2023-11-19T10:30:24;10.13;;;3.08;;
22468;SDS011;11401;50.792;4.352;2023-11-19T10:35:33;4.97;;;2.97;;
22468;SDS011;11401;50.792;4.352;2023-11-19T10:38:01;7.05;;;2.80;;
22468;SDS011;11401;50.792;4.352;2023-11-19T10:40:42;7.75;;;2.67;;
22468;SDS011;11401;50.792;4.352;2023-11-19T10:43:09;6.35;;;2.50;;
22468;SDS011;11401;50.792;4.352;2023-11-19T10:45:36;8.75;;;2.70;;
22468;SDS011;11401;50.792;4.352;2023-11-19T10:48:05;7.68;;;2.25;;
22468;SDS011;11401;50.792;4.352;2023-11-19T10:50:34;9.00;;;2.53;;
22468;SDS011;11401;50.792;4.352;2023-11-19T10:53:03;9.52;;;2.88;;
22468;SDS011;11401;50.792;4.352;2023-11-19T10:55:32;11.77;;;3.05;;
22468;SDS011;11401;50.792;4.352;2023-11-19T10:58:02;8.68;;;2.30;;
22468;SDS011;11401;50.792;4.352;2023-11-19T11:00:30;9.10;;;2.47;;
22468;SDS011;11401;50.792;4.352;2023-11-19T11:03:02;9.40;;;2.92;;
22468;SDS011;11401;50.792;4.352;2023-11-19T11:05:37;7.55;;;2.67;;
22468;SDS011;11401;50.792;4.352;2023-11-19T11:08:06;10.23;;;3.08;;
22468;SDS011;11401;50.792;4.352;2023-11-19T11:10:34;12.63;;;3.00;;
22468;SDS011;11401;50.792;4.352;2023-11-19T11:13:31;7.85;;;2.92;;
22468;SDS011;11401;50.792;4.352;2023-11-19T11:16:00;10.40;;;2.88;;
22468;SDS011;11401;50.792;4.352;2023-11-19T11:18:28;7.30;;;2.75;;
22468;SDS011;11401;50.792;4.352;2023-11-19T11:21:16;14.73;;;3.40;;
22468;SDS011;11401;50.792;4.352;2023-11-19T11:26:29;9.10;;;2.65;;
22468;SDS011;11401;50.792;4.352;2023-11-19T11:29:00;11.45;;;3.17;;
22468;SDS011;11401;50.792;4.352;2023-11-19T11:39:45;14.00;;;3.28;;
22468;SDS011;11401;50.792;4.352;2023-11-19T11:44:57;15.45;;;4.07;;
22468;SDS011;11401;50.792;4.352;2023-11-19T11:47:46;9.48;;;3.17;;
22468;SDS011;11401;50.792;4.352;2023-11-19T11:50:31;12.00;;;3.47;;
22468;SDS011;11401;50.792;4.352;2023-11-19T11:55:36;11.10;;;3.60;;
22468;SDS011;11401;50.792;4.352;2023-11-19T11:58:18;9.88;;;3.72;;
22468;SDS011;11401;50.792;4.352;2023-11-19T12:00:47;10.18;;;3.38;;
22468;SDS011;11401;50.792;4.352;2023-11-19T12:03:15;13.50;;;3.97;;
22468;SDS011;11401;50.792;4.352;2023-11-19T12:05:46;12.82;;;3.13;;
22468;SDS011;11401;50.792;4.352;2023-11-19T12:08:14;12.10;;;3.28;;
22468;SDS011;11401;50.792;4.352;2023-11-19T12:10:51;11.32;;;3.33;;
22468;SDS011;11401;50.792;4.352;2023-11-19T12:13:20;11.82;;;3.03;;
22468;SDS011;11401;50.792;4.352;2023-11-19T12:18:26;8.90;;;2.75;;
22468;SDS011;11401;50.792;4.352;2023-11-19T12:20:55;11.63;;;2.85;;
22468;SDS011;11401;50.792;4.352;2023-11-19T12:23:22;8.35;;;2.85;;
22468;SDS011;11401;50.792;4.352;2023-11-19T12:25:50;12.70;;;3.38;;
22468;SDS011;11401;50.792;4.352;2023-11-19T12:28:17;10.38;;;3.00;;
22468;SDS011;11401;50.792;4.352;2023-11-19T12:30:45;8.93;;;3.03;;
22468;SDS011;11401;50.792;4.352;2023-11-19T12:33:13;12.57;;;3.50;;
22468;SDS011;11401;50.792;4.352;2023-11-19T12:35:44;9.98;;;2.95;;
22468;SDS011;11401;50.792;4.352;2023-11-19T12:38:25;6.95;;;2.60;;
22468;SDS011;11401;50.792;4.352;2023-11-19T12:41:02;15.02;;;3.78;;
22468;SDS011;11401;50.792;4.352;2023-11-19T12:43:33;12.57;;;3.42;;
22468;SDS011;11401;50.792;4.352;2023-11-19T12:46:20;10.48;;;4.07;;
22468;SDS011;11401;50.792;4.352;2023-11-19T12:48:48;12.75;;;3.17;;
22468;SDS011;11401;50.792;4.352;2023-11-19T12:51:15;11.93;;;3.08;;
22468;SDS011;11401;50.792;4.352;2023-11-19T12:53:52;13.93;;;3.85;;
22468;SDS011;11401;50.792;4.352;2023-11-19T12:56:21;16.80;;;3.58;;
22468;SDS011;11401;50.792;4.352;2023-11-19T12:58:49;16.95;;;3.88;;
22468;SDS011;11401;50.792;4.352;2023-11-19T13:01:17;12.05;;;3.35;;
22468;SDS011;11401;50.792;4.352;2023-11-19T13:03:46;9.65;;;2.70;;
22468;SDS011;11401;50.792;4.352;2023-11-19T13:06:15;13.88;;;4.03;;
22468;SDS011;11401;50.792;4.352;2023-11-19T13:08:44;10.25;;;3.35;;
22468;SDS011;11401;50.792;4.352;2023-11-19T13:11:12;13.95;;;4.03;;
22468;SDS011;11401;50.792;4.352;2023-11-19T13:13:55;11.10;;;3.80;;
22468;SDS011;11401;50.792;4.352;2023-11-19T13:16:27;17.10;;;3.22;;
22468;SDS011;11401;50.792;4.352;2023-11-19T13:18:55;10.48;;;3.15;;
22468;SDS011;11401;50.792;4.352;2023-11-19T13:21:23;15.55;;;3.65;;
22468;SDS011;11401;50.792;4.352;2023-11-19T13:23:51;10.80;;;3.10;;
22468;SDS011;11401;50.792;4.352;2023-11-19T13:26:18;11.70;;;3.58;;
22468;SDS011;11401;50.792;4.352;2023-11-19T13:28:45;9.48;;;2.70;;
22468;SDS011;11401;50.792;4.352;2023-11-19T13:31:15;12.48;;;3.42;;
22468;SDS011;11401;50.792;4.352;2023-11-19T13:33:43;14.88;;;3.45;;
22468;SDS011;11401;50.792;4.352;2023-11-19T13:36:10;10.98;;;3.28;;
22468;SDS011;11401;50.792;4.352;2023-11-19T13:38:42;12.15;;;3.47;;
22468;SDS011;11401;50.792;4.352;2023-11-19T13:41:11;9.75;;;3.35;;
22468;SDS011;11401;50.792;4.352;2023-11-19T13:43:39;13.77;;;3.25;;
22468;SDS011;11401;50.792;4.352;2023-11-19T13:46:07;16.42;;;3.80;;
22468;SDS011;11401;50.792;4.352;2023-11-19T13:48:38;20.63;;;4.10;;
22468;SDS011;11401;50.792;4.352;2023-11-19T13:51:06;12.60;;;3.85;;
22468;SDS011;11401;50.792;4.352;2023-11-19T13:53:33;12.10;;;4.80;;
22468;SDS011;11401;50.792;4.352;2023-11-19T13:56:03;13.75;;;4.03;;
22468;SDS011;11401;50.792;4.352;2023-11-19T13:58:53;14.35;;;3.38;;
22468;SDS011;11401;50.792;4.352;2023-11-19T14:01:20;14.88;;;3.47;;
22468;SDS011;11401;50.792;4.352;2023-11-19T14:03:50;15.15;;;4.28;;
22468;SDS011;11401;50.792;4.352;2023-11-19T14:06:18;13.52;;;3.85;;
22468;SDS011;11401;50.792;4.352;2023-11-19T14:08:44;11.05;;;3.67;;
22468;SDS011;11401;50.792;4.352;2023-11-19T14:11:11;14.27;;;3.45;;
22468;SDS011;11401;50.792;4.352;2023-11-19T14:13:39;15.85;;;4.15;;
22468;SDS011;11401;50.792;4.352;2023-11-19T14:16:06;21.00;;;4.28;;
22468;SDS011;11401;50.792;4.352;2023-11-19T14:18:35;16.50;;;4.25;;
22468;SDS011;11401;50.792;4.352;2023-11-19T14:21:02;16.25;;;3.83;;
22468;SDS011;11401;50.792;4.352;2023-11-19T14:23:30;15.82;;;3.95;;
22468;SDS011;11401;50.792;4.352;2023-11-19T14:25:57;17.67;;;3.90;;
22468;SDS011;11401;50.792;4.352;2023-11-19T14:28:24;13.93;;;4.32;;
22468;SDS011;11401;50.792;4.352;2023-11-19T14:30:52;14.00;;;5.32;;
22468;SDS011;11401;50.792;4.352;2023-11-19T14:33:23;11.68;;;4.18;;
22468;SDS011;11401;50.792;4.352;2023-11-19T14:35:50;15.77;;;4.60;;
22468;SDS011;11401;50.792;4.352;2023-11-19T14:38:18;20.88;;;4.57;;
22468;SDS011;11401;50.792;4.352;2023-11-19T14:40:45;13.57;;;3.90;;
22468;SDS011;11401;50.792;4.352;2023-11-19T14:43:18;18.48;;;4.57;;
22468;SDS011;11401;50.792;4.352;2023-11-19T14:45:45;14.82;;;3.97;;
22468;SDS011;11401;50.792;4.352;2023-11-19T14:48:16;14.10;;;4.60;;
22468;SDS011;11401;50.792;4.352;2023-11-19T14:50:47;11.18;;;4.15;;
22468;SDS011;11401;50.792;4.352;2023-11-19T14:53:14;14.02;;;4.10;;
22468;SDS011;11401;50.792;4.352;2023-11-19T14:55:42;19.45;;;4.13;;
22468;SDS011;11401;50.792;4.352;2023-11-19T14:58:08;18.20;;;5.22;;
22468;SDS011;11401;50.792;4.352;2023-11-19T15:00:40;17.55;;;4.25;;
22468;SDS011;11401;50.792;4.352;2023-11-19T15:03:11;16.80;;;4.88;;
22468;SDS011;11401;50.792;4.352;2023-11-19T15:05:41;26.60;;;5.03;;
22468;SDS011;11401;50.792;4.352;2023-11-19T15:08:08;18.30;;;4.82;;
22468;SDS011;11401;50.792;4.352;2023-11-19T15:10:35;20.85;;;4.18;;